createdAt,value
2017-11-18T08:18:22.391Z,3340
2017-11-18T08:19:44.142Z,3324
2017-11-18T08:21:06.178Z,3248
2017-11-18T08:22:27.997Z,3164
2017-11-18T08:23:49.979Z,3140
2017-11-18T08:25:11.707Z,3332
2017-11-18T08:26:33.149Z,3512
2017-11-18T08:27:55.219Z,3824
2017-11-18T08:29:17.222Z,4760
2017-11-18T08:30:39.222Z,5200
2017-11-18T08:32:01.225Z,4840
2017-11-18T08:33:23.247Z,4868
2017-11-18T08:34:45.357Z,5312
2017-11-18T08:36:07.156Z,4924
2017-11-18T08:37:28.967Z,4068
2017-11-18T08:38:50.987Z,3748
2017-11-18T08:40:12.443Z,3712
2017-11-18T08:41:34.476Z,3772
2017-11-18T08:42:56.517Z,3744
2017-11-18T08:44:18.527Z,3280
2017-11-18T08:45:40.637Z,2964
2017-11-18T08:47:02.719Z,3380
2017-11-18T08:48:23.918Z,3832
2017-11-18T08:49:45.992Z,4092
2017-11-18T08:51:07.705Z,3960
2017-11-18T08:52:29.773Z,3832
2017-11-18T08:53:50.946Z,3740
2017-11-18T08:55:13.305Z,3868
2017-11-18T08:56:35.318Z,4468
2017-11-18T08:57:57.369Z,5284
2017-11-18T08:59:19.507Z,5344
2017-11-18T09:00:41.235Z,5160
2017-11-18T09:02:02.708Z,5628
2017-11-18T09:03:25.086Z,5052
2017-11-18T09:04:47.453Z,4304
2017-11-18T09:06:09.545Z,4980
2017-11-18T09:07:31.546Z,7068
2017-11-18T09:08:53.282Z,7724
2017-11-18T09:10:15.120Z,6792
2017-11-18T09:11:37.129Z,5892
2017-11-18T09:12:59.419Z,5124
2017-11-18T09:14:21.469Z,4064
2017-11-18T09:15:43.978Z,3720
2017-11-18T09:17:05.465Z,3928
2017-11-18T09:18:27.492Z,4648
2017-11-18T09:19:49.514Z,4936
2017-11-18T09:21:11.260Z,5420
2017-11-18T09:22:32.732Z,4928
2017-11-18T09:23:55.057Z,4912
2017-11-18T09:25:17.100Z,4424
2017-11-18T09:26:39.186Z,3412
2017-11-18T09:28:01.472Z,2512
2017-11-18T09:29:23.715Z,2784
2017-11-18T09:30:45.726Z,3696
2017-11-18T09:32:07.708Z,3992
2017-11-18T09:33:29.802Z,3956
2017-11-18T09:34:52.110Z,4992
2017-11-18T09:36:13.847Z,5336
2017-11-18T09:37:35.865Z,5088
2017-11-18T09:38:58.205Z,4916
2017-11-18T09:40:20.477Z,4820
2017-11-18T09:41:42.251Z,4104
2017-11-18T09:43:04.079Z,3768
2017-11-18T09:44:26.477Z,3788
2017-11-18T09:45:48.488Z,4392
2017-11-18T09:47:10.586Z,4324
2017-11-18T09:48:32.587Z,3472
2017-11-18T09:49:54.616Z,3684
2017-11-18T09:51:16.638Z,3636
2017-11-18T09:52:38.430Z,3300
2017-11-18T09:54:00.707Z,3264
2017-11-18T09:55:22.701Z,2764
2017-11-18T09:56:44.690Z,2712
2017-11-18T09:58:06.986Z,3180
2017-11-18T09:59:28.427Z,4800
2017-11-18T10:00:49.707Z,5492
2017-11-18T10:02:11.766Z,6876
2017-11-18T10:03:33.787Z,7004
2017-11-18T10:04:55.696Z,7596
2017-11-18T10:06:17.455Z,7004
2017-11-18T10:07:39.505Z,8040
2017-11-18T10:09:01.809Z,7732
2017-11-18T10:10:23.855Z,5376
2017-11-18T10:11:46.157Z,4792
2017-11-18T10:13:08.507Z,3736
2017-11-18T10:14:30.561Z,2768
2017-11-18T10:15:52.576Z,2520
2017-11-18T10:17:14.956Z,3048
2017-11-18T10:18:36.714Z,3120
2017-11-18T10:19:58.177Z,4156
2017-11-18T10:21:19.946Z,3896
2017-11-18T10:22:41.406Z,2824
2017-11-18T10:24:03.445Z,5720
2017-11-18T10:25:25.440Z,6352
2017-11-18T10:26:47.790Z,5532
2017-11-18T10:28:10.077Z,5648
2017-11-18T10:29:32.406Z,4424
2017-11-18T10:30:54.147Z,4536
2017-11-18T10:32:16.179Z,6792
2017-11-18T10:33:38.451Z,6792
2017-11-18T10:35:00.497Z,6212
2017-11-18T10:36:22.509Z,6776
2017-11-18T10:37:44.305Z,6404
2017-11-18T10:39:06.167Z,3312
2017-11-18T10:40:28.219Z,2532
2017-11-18T10:41:50.226Z,2740
2017-11-18T10:43:12.000Z,3576
2017-11-18T10:44:34.115Z,4428
2017-11-18T10:45:56.124Z,4620
2017-11-18T10:47:18.337Z,5140
2017-11-18T10:48:40.396Z,4164
2017-11-18T10:50:02.175Z,3992
2017-11-18T10:51:23.646Z,4252
2017-11-18T10:52:45.934Z,4200
2017-11-18T10:54:07.936Z,3140
2017-11-18T10:55:30.267Z,2888
2017-11-18T10:56:52.276Z,3484
2017-11-18T10:58:14.085Z,2904
2017-11-18T10:59:36.171Z,2456
2017-11-18T11:00:57.634Z,2864
2017-11-18T11:02:19.381Z,2512
2017-11-18T11:03:41.196Z,2628
2017-11-18T11:05:03.200Z,3044
2017-11-18T11:06:25.528Z,3656
2017-11-18T11:07:49.136Z,3008
2017-11-18T11:09:11.186Z,2360
2017-11-18T11:10:33.490Z,2480
2017-11-18T11:11:55.614Z,1940
2017-11-18T11:13:17.378Z,2304
2017-11-18T11:14:39.610Z,2264
2017-11-18T11:16:01.649Z,2812
2017-11-18T11:17:23.118Z,2912
2017-11-18T11:18:45.451Z,2592
2017-11-18T11:20:07.566Z,2312
2017-11-18T11:21:29.575Z,1604
2017-11-18T11:22:51.608Z,1620
2017-11-18T11:24:13.059Z,1364
2017-11-18T11:25:35.382Z,960
2017-11-18T11:26:57.144Z,824
2017-11-18T11:28:18.367Z,1252
2017-11-18T11:29:40.670Z,1232
2017-11-18T11:31:02.697Z,1340
2017-11-18T11:32:24.990Z,1428
2017-11-18T11:33:47.284Z,1396
2017-11-18T11:35:09.795Z,1776
2017-11-18T11:36:31.835Z,2000
2017-11-18T11:37:53.865Z,1824
2017-11-18T11:39:16.213Z,1724
2017-11-18T11:40:37.936Z,1664
2017-11-18T11:41:59.958Z,1308
2017-11-18T11:43:22.288Z,1096
2017-11-18T11:44:44.676Z,1136
2017-11-18T11:46:06.987Z,1112
2017-11-18T11:47:28.196Z,1392
2017-11-18T11:48:50.580Z,1868
2017-11-18T11:50:12.926Z,2292
2017-11-18T11:51:34.968Z,2748
2017-11-18T11:52:57.014Z,3000
2017-11-18T11:54:18.777Z,2804
2017-11-18T11:55:40.567Z,2240
2017-11-18T11:57:02.856Z,1944
2017-11-18T11:58:24.571Z,1860
2017-11-18T11:59:46.590Z,1724
2017-11-18T12:01:08.678Z,1520
2017-11-18T12:02:31.115Z,1328
2017-11-18T12:03:52.855Z,1356
2017-11-18T12:05:15.115Z,1744
2017-11-18T12:06:36.842Z,2260
2017-11-18T12:07:58.998Z,2568
2017-11-18T12:09:21.826Z,2348
2017-11-18T12:10:44.148Z,2284
2017-11-18T12:12:06.045Z,2724
2017-11-18T12:13:28.111Z,2508
2017-11-18T12:14:50.136Z,2144
2017-11-18T12:16:11.613Z,1776
2017-11-18T12:17:33.644Z,1648
2017-11-18T12:18:55.371Z,1200
2017-11-18T12:20:17.676Z,848
2017-11-18T12:21:38.885Z,1248
2017-11-18T12:23:00.415Z,1032
2017-11-18T12:24:22.785Z,1996
2017-11-18T12:25:44.937Z,2264
2017-11-18T12:27:07.313Z,2400
2017-11-18T12:28:28.780Z,2504
2017-11-18T12:29:51.232Z,2544
2017-11-18T12:31:12.975Z,2484
2017-11-18T12:32:34.864Z,2540
2017-11-18T12:33:56.885Z,2808
2017-11-18T12:35:18.429Z,3076
2017-11-18T12:36:40.253Z,3380
2017-11-18T12:38:02.300Z,3572
2017-11-18T12:39:24.333Z,3468
2017-11-18T12:40:46.091Z,3428
2017-11-18T12:42:08.377Z,2972
2017-11-18T12:43:30.264Z,2192
2017-11-18T12:44:52.127Z,1592
2017-11-18T12:46:14.168Z,1392
2017-11-18T12:47:36.112Z,1384
2017-11-18T12:48:57.857Z,1720
2017-11-18T12:50:19.655Z,2068
2017-11-18T12:51:41.670Z,2352
2017-11-18T12:53:03.154Z,2016
2017-11-18T12:54:25.202Z,1512
2017-11-18T12:55:47.052Z,1388
2017-11-18T12:57:09.067Z,1308
2017-11-18T12:58:31.892Z,1516
2017-11-18T12:59:54.159Z,1712
2017-11-18T13:01:16.474Z,1704
2017-11-18T13:02:38.546Z,1588
2017-11-18T13:04:00.576Z,1444
2017-11-18T13:05:22.026Z,1224
2017-11-18T13:06:44.090Z,1056
2017-11-18T13:08:06.054Z,1136
2017-11-18T13:09:27.229Z,1560
2017-11-18T13:10:49.516Z,1916
2017-11-18T13:12:11.272Z,1828
2017-11-18T13:13:33.876Z,1988
2017-11-18T13:14:55.623Z,2320
2017-11-18T13:16:17.642Z,2472
2017-11-18T13:17:39.394Z,2140
2017-11-18T13:19:01.443Z,1916
2017-11-18T13:20:23.433Z,2304
2017-11-18T13:21:44.896Z,2744
2017-11-18T13:23:07.544Z,3048
2017-11-18T13:24:29.584Z,3404
2017-11-18T13:25:51.612Z,3900
2017-11-18T13:27:13.892Z,4268
2017-11-18T13:28:36.188Z,4464
2017-11-18T13:29:59.899Z,4416
2017-11-18T13:31:21.955Z,3852
2017-11-18T13:32:44.242Z,3496
2017-11-18T13:34:06.667Z,3444
2017-11-18T13:35:28.964Z,3368
2017-11-18T13:36:50.477Z,3548
2017-11-18T13:38:12.234Z,3788
2017-11-18T13:39:33.979Z,4000
2017-11-18T13:40:55.842Z,3972
2017-11-18T13:42:17.916Z,4116
2017-11-18T13:43:40.330Z,3976
2017-11-18T13:45:02.377Z,3952
2017-11-18T13:46:24.453Z,3972
2017-11-18T13:47:46.455Z,3884
2017-11-18T13:49:08.733Z,3824
2017-11-18T13:50:30.768Z,3676
2017-11-18T13:51:52.777Z,3444
2017-11-18T13:53:14.564Z,3344
2017-11-18T13:54:36.856Z,3180
2017-11-18T13:55:58.408Z,3152
2017-11-18T13:57:19.855Z,3208
2017-11-18T13:58:41.906Z,3144
2017-11-18T14:00:03.919Z,3008
2017-11-18T14:01:25.778Z,2888
2017-11-18T14:02:47.856Z,2704
2017-11-18T14:04:09.857Z,2524
2017-11-18T14:05:31.605Z,2392
2017-11-18T14:06:53.626Z,2284
2017-11-18T14:08:15.978Z,2136
2017-11-18T14:09:37.997Z,2164
2017-11-18T14:11:00.018Z,2428
2017-11-18T14:12:22.146Z,2536
2017-11-18T14:13:44.463Z,2644
2017-11-18T14:15:06.492Z,2756
2017-11-18T14:16:28.205Z,2856
2017-11-18T14:17:50.238Z,2792
2017-11-18T14:19:12.589Z,2700
2017-11-18T14:20:34.627Z,2616
2017-11-18T14:21:56.366Z,2492
2017-11-18T14:23:18.391Z,2432
2017-11-18T14:24:40.672Z,2472
2017-11-18T14:26:02.698Z,2480
2017-11-18T14:27:25.328Z,2364
2017-11-18T14:28:47.781Z,2328
2017-11-18T14:30:10.125Z,2308
2017-11-18T14:31:32.407Z,2240
2017-11-18T14:32:54.787Z,2100
2017-11-18T14:34:16.548Z,1988
2017-11-18T14:35:38.949Z,1912
2017-11-18T14:37:00.969Z,1768
2017-11-18T14:38:22.725Z,1644
2017-11-18T14:39:44.951Z,1548
2017-11-18T14:41:06.834Z,1560
2017-11-18T14:42:28.898Z,1604
2017-11-18T14:43:50.943Z,1672
2017-11-18T14:45:13.208Z,1752
2017-11-18T14:46:35.229Z,1768
2017-11-18T14:47:57.304Z,1696
2017-11-18T14:49:19.298Z,1580
2017-11-18T14:50:41.319Z,1444
2017-11-18T14:52:03.037Z,1296
2017-11-18T14:53:25.091Z,1136
2017-11-18T14:54:46.815Z,1020
2017-11-18T14:56:09.130Z,928
2017-11-18T14:57:31.371Z,828
2017-11-18T14:58:53.405Z,728
2017-11-18T15:00:15.187Z,652
2017-11-18T15:01:36.928Z,616
2017-11-18T15:02:59.232Z,596
2017-11-18T15:04:21.581Z,568
2017-11-18T15:05:43.068Z,540
2017-11-18T15:07:05.079Z,500
2017-11-18T15:08:27.377Z,476
2017-11-18T15:09:49.669Z,484
2017-11-18T15:11:11.487Z,500
2017-11-18T15:12:33.261Z,476
2017-11-18T15:13:55.849Z,444
2017-11-18T15:15:18.002Z,408
2017-11-18T15:16:40.436Z,376
2017-11-18T15:18:02.439Z,348
2017-11-18T15:19:24.757Z,320
2017-11-18T15:20:46.869Z,296
2017-11-18T15:22:11.283Z,268
2017-11-18T15:23:33.347Z,244
2017-11-18T15:24:55.737Z,220
2017-11-18T15:26:17.804Z,196
2017-11-18T15:27:40.327Z,176
2017-11-18T15:29:01.573Z,156
2017-11-18T15:30:23.896Z,136
2017-11-18T15:31:45.939Z,120
2017-11-18T15:33:08.098Z,104
2017-11-18T15:34:30.175Z,88
2017-11-18T15:35:52.335Z,76
2017-11-18T15:37:14.729Z,64
2017-11-18T15:38:37.205Z,52
2017-11-18T15:39:58.688Z,44
2017-11-18T15:41:21.078Z,32
2017-11-18T15:42:42.886Z,24
2017-11-18T15:44:06.838Z,20
2017-11-18T15:45:29.390Z,16
2017-11-18T15:46:51.707Z,12
2017-11-18T15:48:13.471Z,12
2017-11-18T15:49:35.648Z,8
2017-11-18T15:50:57.699Z,8
2017-11-18T15:52:19.756Z,8
2017-11-18T15:53:42.166Z,4
2017-11-18T15:55:04.294Z,4
2017-11-18T15:56:26.626Z,4
2017-11-18T15:57:49.551Z,4
2017-11-18T15:59:12.813Z,0
2017-11-18T16:00:34.628Z,0
2017-11-18T16:01:56.926Z,0
2017-11-18T16:03:18.677Z,0
2017-11-18T16:04:40.750Z,0
2017-11-18T16:06:02.520Z,0
2017-11-18T16:07:23.780Z,0
2017-11-18T16:08:45.548Z,0
2017-11-18T16:10:06.739Z,0
2017-11-18T16:11:29.160Z,0
2017-11-18T16:12:51.207Z,0
2017-11-18T16:14:13.246Z,0
2017-11-18T16:15:35.007Z,0
2017-11-18T16:16:57.042Z,0
2017-11-18T16:18:19.057Z,0
2017-11-18T16:19:41.406Z,0
2017-11-18T16:21:03.489Z,0
2017-11-18T16:22:25.605Z,0
2017-11-18T16:23:47.376Z,0
2017-11-18T16:25:09.434Z,0
2017-11-18T16:26:31.193Z,0
2017-11-18T16:27:53.296Z,0
2017-11-18T16:29:15.625Z,0
2017-11-18T16:30:37.692Z,0
2017-11-18T16:32:00.028Z,0
2017-11-18T16:33:22.072Z,0
2017-11-18T16:34:43.784Z,0
2017-11-18T16:36:05.855Z,0
2017-11-18T16:37:27.902Z,0
2017-11-18T16:38:50.253Z,0
2017-11-18T16:40:12.116Z,0
2017-11-18T16:41:33.850Z,0
2017-11-18T16:42:55.592Z,0
2017-11-18T16:44:17.881Z,0
2017-11-18T16:45:39.913Z,0
2017-11-18T16:47:02.228Z,0
2017-11-18T16:48:24.558Z,0
2017-11-18T16:49:46.617Z,0
2017-11-18T16:51:08.117Z,0
2017-11-18T16:52:30.429Z,0
2017-11-18T16:53:52.752Z,0
2017-11-18T16:55:15.067Z,0
2017-11-18T16:56:37.086Z,0
2017-11-18T16:57:59.391Z,0
2017-11-18T16:59:21.578Z,0
2017-11-18T17:00:43.718Z,0
2017-11-18T17:02:05.778Z,0
2017-11-18T17:03:27.908Z,0
2017-11-18T17:04:50.012Z,0
2017-11-18T17:06:12.065Z,0
2017-11-18T17:07:34.382Z,0
2017-11-18T17:08:56.702Z,0
2017-11-18T17:10:19.016Z,0
2017-11-18T17:11:41.067Z,0
2017-11-18T17:13:03.531Z,0
2017-11-18T17:14:26.656Z,0
2017-11-18T17:15:48.977Z,0
2017-11-18T17:17:10.747Z,0
2017-11-18T17:18:33.177Z,0
2017-11-18T17:19:55.244Z,0
2017-11-18T17:21:17.306Z,0
2017-11-18T17:22:39.378Z,0
2017-11-18T17:24:01.690Z,0
2017-11-18T17:25:23.853Z,0
2017-11-18T17:26:46.144Z,0
2017-11-18T17:28:07.602Z,0
2017-11-18T17:29:29.976Z,0
2017-11-18T17:30:52.281Z,0
2017-11-18T17:32:14.058Z,0
2017-11-18T17:33:36.063Z,0
2017-11-18T17:34:58.074Z,8
2017-11-18T17:36:20.359Z,8
2017-11-18T17:37:42.762Z,8
2017-11-18T17:39:04.866Z,8
2017-11-18T17:40:26.685Z,8
2017-11-18T17:41:48.735Z,0
2017-11-18T17:43:11.044Z,0
2017-11-18T17:44:32.538Z,0
2017-11-18T17:45:54.281Z,0
2017-11-18T17:47:16.675Z,0
2017-11-18T17:48:38.984Z,0
2017-11-18T17:50:01.317Z,0
2017-11-18T17:51:22.797Z,0
2017-11-18T17:52:45.172Z,0
2017-11-18T17:54:07.424Z,0
2017-11-18T17:55:29.457Z,0
2017-11-18T17:56:51.477Z,0
2017-11-18T17:58:13.814Z,0
2017-11-18T17:59:35.869Z,0
2017-11-18T18:00:57.653Z,0
2017-11-18T18:02:19.687Z,0
2017-11-18T18:03:41.748Z,0
2017-11-18T18:05:03.504Z,0
2017-11-18T18:06:25.832Z,0
2017-11-18T18:07:47.840Z,0
2017-11-18T18:09:09.584Z,0
2017-11-18T18:10:31.445Z,0
2017-11-18T18:11:53.447Z,0
2017-11-18T18:13:15.478Z,0
2017-11-18T18:14:37.769Z,0
2017-11-18T18:15:59.492Z,0
2017-11-18T18:17:21.513Z,0
2017-11-18T18:18:43.015Z,0
2017-11-18T18:20:05.313Z,0
2017-11-18T18:21:26.777Z,0
2017-11-18T18:22:49.065Z,0
2017-11-18T18:24:11.597Z,0
2017-11-18T18:25:33.652Z,0
2017-11-18T18:26:55.120Z,0
2017-11-18T18:28:16.889Z,0
2017-11-18T18:29:39.186Z,0
2017-11-18T18:31:01.594Z,0
2017-11-18T18:32:23.889Z,0
2017-11-18T18:33:46.281Z,0
2017-11-18T18:35:08.638Z,0
2017-11-18T18:36:30.667Z,0
2017-11-18T18:37:52.974Z,0
2017-11-18T18:39:15.310Z,0
2017-11-18T18:40:37.332Z,0
2017-11-18T18:41:59.368Z,0
2017-11-18T18:43:21.225Z,0
2017-11-18T18:44:42.945Z,0
2017-11-18T18:46:04.690Z,0
2017-11-18T18:47:26.957Z,0
2017-11-18T18:48:48.698Z,0
2017-11-18T18:50:10.738Z,0
2017-11-18T18:51:32.619Z,0
2017-11-18T18:52:54.635Z,0
2017-11-18T18:54:16.939Z,0
2017-11-18T18:55:38.960Z,0
2017-11-18T18:57:00.977Z,0
2017-11-18T18:58:23.259Z,0
2017-11-18T18:59:45.278Z,0
2017-11-18T19:01:07.284Z,0
2017-11-18T19:02:29.575Z,0
2017-11-18T19:03:51.626Z,0
2017-11-18T19:05:13.695Z,0
2017-11-18T19:06:36.006Z,0
2017-11-18T19:07:58.172Z,0
2017-11-18T19:09:20.457Z,0
2017-11-18T19:10:42.549Z,0
2017-11-18T19:12:04.595Z,0
2017-11-18T19:13:26.418Z,0
2017-11-18T19:14:48.708Z,0
2017-11-18T19:16:10.723Z,0
2017-11-18T19:17:32.499Z,0
2017-11-18T19:18:54.840Z,0
2017-11-18T19:20:17.212Z,0
2017-11-18T19:21:38.978Z,0
2017-11-18T19:23:01.008Z,0
2017-11-18T19:24:23.340Z,0
2017-11-18T19:25:45.646Z,0
2017-11-18T19:27:07.671Z,0
2017-11-18T19:28:29.716Z,0
2017-11-18T19:29:51.742Z,0
2017-11-18T19:31:13.774Z,0
2017-11-18T19:32:35.497Z,0
2017-11-18T19:33:57.788Z,0
2017-11-18T19:35:19.801Z,0
2017-11-18T19:36:42.181Z,0
2017-11-18T19:38:04.465Z,0
2017-11-18T19:39:26.820Z,0
2017-11-18T19:40:48.611Z,0
2017-11-18T19:42:10.828Z,0
2017-11-18T19:43:32.724Z,0
2017-11-18T19:44:54.757Z,0
2017-11-18T19:46:17.053Z,0
2017-11-18T19:47:39.067Z,0
2017-11-18T19:49:00.813Z,0
2017-11-18T19:50:22.901Z,0
2017-11-18T19:51:45.247Z,0
2017-11-18T19:53:07.554Z,0
2017-11-18T19:54:29.901Z,0
2017-11-18T19:55:52.253Z,0
2017-11-18T19:57:14.056Z,0
2017-11-18T19:58:36.369Z,0
2017-11-18T19:59:58.417Z,0
2017-11-18T20:01:20.601Z,0
2017-11-18T20:02:42.647Z,0
2017-11-18T20:04:04.714Z,0
2017-11-18T20:05:27.003Z,0
2017-11-18T20:06:49.360Z,0
2017-11-18T20:08:11.648Z,0
2017-11-18T20:09:33.799Z,0
2017-11-18T20:10:55.908Z,0
2017-11-18T20:12:18.290Z,0
2017-11-18T20:13:40.567Z,0
2017-11-18T20:15:02.989Z,0
2017-11-18T20:16:25.264Z,0
2017-11-18T20:17:47.636Z,0
2017-11-18T20:19:09.379Z,0
2017-11-18T20:20:31.689Z,0
2017-11-18T20:21:54.000Z,0
2017-11-18T20:23:16.041Z,0
2017-11-18T20:24:38.308Z,0
2017-11-18T20:26:00.611Z,0
2017-11-18T20:27:22.346Z,0
2017-11-18T20:28:44.376Z,0
2017-11-18T20:30:06.406Z,0
2017-11-18T20:31:28.153Z,0
2017-11-18T20:32:50.476Z,0
2017-11-18T20:34:12.777Z,0
2017-11-18T20:35:34.557Z,0
2017-11-18T20:36:57.010Z,0
2017-11-18T20:38:19.373Z,0
2017-11-18T20:39:41.237Z,0
2017-11-18T20:41:03.266Z,0
2017-11-18T20:42:25.576Z,0
2017-11-18T20:43:47.367Z,0
2017-11-18T20:45:09.388Z,0
2017-11-18T20:46:31.363Z,0
2017-11-18T20:47:53.696Z,0
2017-11-18T20:49:15.459Z,0
2017-11-18T20:50:37.221Z,0
2017-11-18T20:51:59.069Z,0
2017-11-18T20:53:21.201Z,0
2017-11-18T20:54:43.557Z,0
2017-11-18T20:56:05.107Z,0
2017-11-18T20:57:27.138Z,0
2017-11-18T20:58:48.621Z,0
2017-11-18T21:00:10.669Z,0
2017-11-18T21:01:32.839Z,0
2017-11-18T21:02:55.247Z,0
2017-11-18T21:04:17.219Z,0
2017-11-18T21:05:39.539Z,0
2017-11-18T21:07:01.582Z,0
2017-11-18T21:08:23.617Z,0
2017-11-18T21:09:45.939Z,0
2017-11-18T21:11:07.957Z,0
2017-11-18T21:12:29.995Z,0
2017-11-18T21:13:51.790Z,0
2017-11-18T21:15:14.137Z,0
2017-11-18T21:16:36.523Z,0
2017-11-18T21:17:58.258Z,0
2017-11-18T21:19:20.560Z,0
2017-11-18T21:20:42.918Z,0
2017-11-18T21:22:04.978Z,0
2017-11-18T21:23:27.111Z,0
2017-11-18T21:24:49.421Z,0
2017-11-18T21:26:11.456Z,0
2017-11-18T21:27:32.917Z,0
2017-11-18T21:28:55.026Z,0
2017-11-18T21:30:17.050Z,0
2017-11-18T21:31:39.398Z,0
2017-11-18T21:33:01.761Z,0
2017-11-18T21:34:24.069Z,0
2017-11-18T21:35:46.078Z,0
2017-11-18T21:37:08.417Z,0
2017-11-18T21:38:29.929Z,0
2017-11-18T21:39:51.995Z,0
2017-11-18T21:41:14.219Z,0
2017-11-18T21:42:36.286Z,0
2017-11-18T21:43:57.494Z,0
2017-11-18T21:45:19.265Z,0
2017-11-18T21:46:41.306Z,0
2017-11-18T21:48:02.760Z,0
2017-11-18T21:49:24.860Z,0
2017-11-18T21:50:46.898Z,0
2017-11-18T21:52:08.943Z,0
2017-11-18T21:53:31.345Z,0
2017-11-18T21:54:53.637Z,0
2017-11-18T21:56:15.984Z,0
2017-11-18T21:57:38.068Z,0
2017-11-18T21:59:00.577Z,0
2017-11-18T22:00:22.649Z,0
2017-11-18T22:01:44.468Z,0
2017-11-18T22:03:06.781Z,0
2017-11-18T22:04:28.590Z,0
2017-11-18T22:05:50.952Z,0
2017-11-18T22:07:12.733Z,0
2017-11-18T22:08:34.736Z,0
2017-11-18T22:09:56.631Z,0
2017-11-18T22:11:18.379Z,0
2017-11-18T22:12:40.431Z,0
2017-11-18T22:14:02.747Z,0
2017-11-18T22:15:24.516Z,0
2017-11-18T22:16:46.612Z,0
2017-11-18T22:18:08.437Z,0
2017-11-18T22:19:30.167Z,0
2017-11-18T22:20:52.467Z,0
2017-11-18T22:22:13.956Z,0
2017-11-18T22:23:35.967Z,0
2017-11-18T22:24:58.039Z,0
2017-11-18T22:26:20.363Z,0
2017-11-18T22:27:41.836Z,0
2017-11-18T22:29:04.111Z,0
2017-11-18T22:30:26.410Z,0
2017-11-18T22:31:48.156Z,0
2017-11-18T22:33:10.178Z,0
2017-11-18T22:34:32.204Z,0
2017-11-18T22:35:53.987Z,0
2017-11-18T22:37:15.537Z,0
2017-11-18T22:38:37.917Z,0
2017-11-18T22:39:59.949Z,0
2017-11-18T22:41:21.437Z,0
2017-11-18T22:42:42.876Z,0
2017-11-18T22:44:05.277Z,0
2017-11-18T22:45:27.325Z,0
2017-11-18T22:46:49.300Z,0
2017-11-18T22:48:11.070Z,0
2017-11-18T22:49:33.355Z,0
2017-11-18T22:50:55.389Z,0
2017-11-18T22:52:17.400Z,0
2017-11-18T22:53:39.646Z,0
2017-11-18T22:55:01.652Z,0
2017-11-18T22:56:23.395Z,0
2017-11-18T22:57:45.797Z,0
2017-11-18T22:59:08.180Z,0
2017-11-18T23:00:29.877Z,0
2017-11-18T23:01:52.159Z,0
2017-11-18T23:03:14.174Z,0
2017-11-18T23:04:36.838Z,0
2017-11-18T23:05:58.848Z,0
2017-11-18T23:07:20.565Z,0
2017-11-18T23:08:42.616Z,0
2017-11-18T23:10:04.366Z,0
2017-11-18T23:11:26.127Z,0
2017-11-18T23:12:47.332Z,0
2017-11-18T23:14:09.628Z,0
2017-11-18T23:15:31.720Z,0
2017-11-18T23:16:54.498Z,0
2017-11-18T23:18:16.517Z,0
2017-11-18T23:19:38.277Z,0
2017-11-18T23:21:00.629Z,0
2017-11-18T23:22:22.937Z,0
2017-11-18T23:23:44.958Z,0
2017-11-18T23:25:06.975Z,0
2017-11-18T23:26:28.686Z,0
2017-11-18T23:27:51.017Z,0
2017-11-18T23:29:13.036Z,0
2017-11-18T23:30:34.795Z,0
2017-11-18T23:31:56.817Z,0
2017-11-18T23:33:17.727Z,0
2017-11-18T23:34:40.037Z,0
2017-11-18T23:36:02.029Z,0
2017-11-18T23:37:24.345Z,0
2017-11-18T23:38:46.070Z,0
2017-11-18T23:40:08.096Z,0
2017-11-18T23:41:30.366Z,0
2017-11-18T23:42:51.833Z,0
2017-11-18T23:44:13.567Z,0
2017-11-18T23:45:35.317Z,0
2017-11-18T23:46:57.536Z,0
2017-11-18T23:48:19.270Z,0
2017-11-18T23:49:40.987Z,0
2017-11-18T23:51:02.720Z,0
2017-11-18T23:52:24.717Z,0
2017-11-18T23:53:46.187Z,0
2017-11-18T23:55:08.466Z,0
2017-11-18T23:56:30.210Z,0
2017-11-18T23:57:52.220Z,0
2017-11-18T23:59:14.227Z,0
